sensor_id;sensor_type;location;lat;lon;timestamp;temperature;humidity
5621;DHT22;2832;50.864;12.186;2022-08-19T00:00:17;24.40;99.90
5621;DHT22;2832;50.864;12.186;2022-08-19T00:02:45;24.40;99.90
5621;DHT22;2832;50.864;12.186;2022-08-19T00:05:14;24.50;99.90
5621;DHT22;2832;50.864;12.186;2022-08-19T00:07:43;24.50;99.90
5621;DHT22;2832;50.864;12.186;2022-08-19T00:10:15;24.50;99.90
5621;DHT22;2832;50.864;12.186;2022-08-19T00:12:43;24.50;99.90
5621;DHT22;2832;50.864;12.186;2022-08-19T00:15:17;24.60;99.90
5621;DHT22;2832;50.864;12.186;2022-08-19T00:17:46;24.50;99.90
5621;DHT22;2832;50.864;12.186;2022-08-19T00:20:17;24.60;99.90
5621;DHT22;2832;50.864;12.186;2022-08-19T00:22:59;24.60;99.90
5621;DHT22;2832;50.864;12.186;2022-08-19T00:25:28;24.50;99.90
5621;DHT22;2832;50.864;12.186;2022-08-19T00:27:56;24.50;99.90
5621;DHT22;2832;50.864;12.186;2022-08-19T00:30:27;24.40;99.90
5621;DHT22;2832;50.864;12.186;2022-08-19T00:32:55;24.40;99.90
5621;DHT22;2832;50.864;12.186;2022-08-19T00:35:24;24.30;99.90
5621;DHT22;2832;50.864;12.186;2022-08-19T00:37:54;24.40;99.90
5621;DHT22;2832;50.864;12.186;2022-08-19T00:40:23;24.40;99.90
5621;DHT22;2832;50.864;12.186;2022-08-19T00:42:54;24.40;99.90
5621;DHT22;2832;50.864;12.186;2022-08-19T00:45:25;24.40;99.90
5621;DHT22;2832;50.864;12.186;2022-08-19T00:47:54;24.40;99.90
5621;DHT22;2832;50.864;12.186;2022-08-19T00:50:23;24.40;99.90
5621;DHT22;2832;50.864;12.186;2022-08-19T00:52:52;24.40;99.90
5621;DHT22;2832;50.864;12.186;2022-08-19T00:55:23;24.30;99.90
5621;DHT22;2832;50.864;12.186;2022-08-19T00:57:59;24.30;99.90
5621;DHT22;2832;50.864;12.186;2022-08-19T01:00:32;24.40;99.90
5621;DHT22;2832;50.864;12.186;2022-08-19T01:03:01;24.40;99.90
5621;DHT22;2832;50.864;12.186;2022-08-19T01:05:30;24.40;99.90
5621;DHT22;2832;50.864;12.186;2022-08-19T01:08:01;24.50;99.90
5621;DHT22;2832;50.864;12.186;2022-08-19T01:10:36;24.50;99.90
5621;DHT22;2832;50.864;12.186;2022-08-19T01:13:08;24.40;99.90
5621;DHT22;2832;50.864;12.186;2022-08-19T01:15:42;24.40;99.90
5621;DHT22;2832;50.864;12.186;2022-08-19T01:18:13;24.40;99.90
5621;DHT22;2832;50.864;12.186;2022-08-19T01:20:42;24.40;99.90
5621;DHT22;2832;50.864;12.186;2022-08-19T01:23:15;24.40;99.90
5621;DHT22;2832;50.864;12.186;2022-08-19T01:25:50;24.40;99.90
5621;DHT22;2832;50.864;12.186;2022-08-19T01:28:27;24.40;99.90
5621;DHT22;2832;50.864;12.186;2022-08-19T01:30:55;24.30;99.90
5621;DHT22;2832;50.864;12.186;2022-08-19T01:33:23;24.30;99.90
5621;DHT22;2832;50.864;12.186;2022-08-19T01:35:51;24.30;99.90
5621;DHT22;2832;50.864;12.186;2022-08-19T01:38:24;24.30;99.90
5621;DHT22;2832;50.864;12.186;2022-08-19T01:40:54;24.20;99.90
5621;DHT22;2832;50.864;12.186;2022-08-19T01:43:23;24.20;99.90
5621;DHT22;2832;50.864;12.186;2022-08-19T01:45:53;24.10;99.90
5621;DHT22;2832;50.864;12.186;2022-08-19T01:48:21;24.20;99.90
5621;DHT22;2832;50.864;12.186;2022-08-19T01:50:59;24.10;99.90
5621;DHT22;2832;50.864;12.186;2022-08-19T01:53:29;24.10;99.90
5621;DHT22;2832;50.864;12.186;2022-08-19T01:55:58;24.10;99.90
5621;DHT22;2832;50.864;12.186;2022-08-19T01:58:35;24.10;99.90
5621;DHT22;2832;50.864;12.186;2022-08-19T02:01:06;24.20;99.90
5621;DHT22;2832;50.864;12.186;2022-08-19T02:03:35;24.20;99.90
5621;DHT22;2832;50.864;12.186;2022-08-19T02:06:05;24.30;99.90
5621;DHT22;2832;50.864;12.186;2022-08-19T02:08:36;24.30;99.90
5621;DHT22;2832;50.864;12.186;2022-08-19T02:11:06;24.30;99.90
5621;DHT22;2832;50.864;12.186;2022-08-19T02:13:34;24.30;99.90
5621;DHT22;2832;50.864;12.186;2022-08-19T02:16:03;24.20;99.90
5621;DHT22;2832;50.864;12.186;2022-08-19T02:18:31;24.30;99.90
5621;DHT22;2832;50.864;12.186;2022-08-19T02:21:03;24.20;99.90
5621;DHT22;2832;50.864;12.186;2022-08-19T02:23:34;24.20;99.90
5621;DHT22;2832;50.864;12.186;2022-08-19T02:26:06;24.20;99.90
5621;DHT22;2832;50.864;12.186;2022-08-19T02:28:38;24.30;99.90
5621;DHT22;2832;50.864;12.186;2022-08-19T02:31:13;24.30;99.90
5621;DHT22;2832;50.864;12.186;2022-08-19T02:33:49;24.30;99.90
5621;DHT22;2832;50.864;12.186;2022-08-19T02:36:18;24.30;99.90
5621;DHT22;2832;50.864;12.186;2022-08-19T02:38:50;24.30;99.90
5621;DHT22;2832;50.864;12.186;2022-08-19T02:41:19;24.30;99.90
5621;DHT22;2832;50.864;12.186;2022-08-19T02:43:48;24.30;99.90
5621;DHT22;2832;50.864;12.186;2022-08-19T02:46:18;24.30;99.90
5621;DHT22;2832;50.864;12.186;2022-08-19T02:48:48;24.30;99.90
5621;DHT22;2832;50.864;12.186;2022-08-19T02:51:18;24.20;99.90
5621;DHT22;2832;50.864;12.186;2022-08-19T02:53:51;24.10;99.90
5621;DHT22;2832;50.864;12.186;2022-08-19T02:56:22;24.10;99.90
5621;DHT22;2832;50.864;12.186;2022-08-19T02:58:50;24.10;99.90
5621;DHT22;2832;50.864;12.186;2022-08-19T03:01:21;24.10;99.90
5621;DHT22;2832;50.864;12.186;2022-08-19T03:03:51;24.10;99.90
5621;DHT22;2832;50.864;12.186;2022-08-19T03:06:24;24.10;99.90
5621;DHT22;2832;50.864;12.186;2022-08-19T03:08:57;24.10;99.90
5621;DHT22;2832;50.864;12.186;2022-08-19T03:11:27;24.10;99.90
5621;DHT22;2832;50.864;12.186;2022-08-19T03:13:57;24.10;99.90
5621;DHT22;2832;50.864;12.186;2022-08-19T03:16:47;24.10;99.90
5621;DHT22;2832;50.864;12.186;2022-08-19T03:19:44;24.10;99.90
5621;DHT22;2832;50.864;12.186;2022-08-19T03:22:45;24.00;99.90
5621;DHT22;2832;50.864;12.186;2022-08-19T03:28:46;24.10;99.90
5621;DHT22;2832;50.864;12.186;2022-08-19T03:31:18;24.10;99.90
5621;DHT22;2832;50.864;12.186;2022-08-19T03:33:46;24.00;99.90
5621;DHT22;2832;50.864;12.186;2022-08-19T03:36:17;23.90;99.90
5621;DHT22;2832;50.864;12.186;2022-08-19T03:38:49;23.90;99.90
5621;DHT22;2832;50.864;12.186;2022-08-19T03:41:28;23.80;99.90
5621;DHT22;2832;50.864;12.186;2022-08-19T03:47:24;23.60;99.90
5621;DHT22;2832;50.864;12.186;2022-08-19T03:49:52;23.60;99.90
5621;DHT22;2832;50.864;12.186;2022-08-19T03:52:20;23.50;99.90
5621;DHT22;2832;50.864;12.186;2022-08-19T03:54:48;23.40;99.90
5621;DHT22;2832;50.864;12.186;2022-08-19T03:57:16;23.40;99.90
5621;DHT22;2832;50.864;12.186;2022-08-19T03:59:53;23.40;99.90
5621;DHT22;2832;50.864;12.186;2022-08-19T04:02:24;23.40;99.90
5621;DHT22;2832;50.864;12.186;2022-08-19T04:04:53;23.40;99.90
5621;DHT22;2832;50.864;12.186;2022-08-19T04:07:21;23.40;99.90
5621;DHT22;2832;50.864;12.186;2022-08-19T04:09:52;23.50;99.90
5621;DHT22;2832;50.864;12.186;2022-08-19T04:12:22;23.40;99.90
5621;DHT22;2832;50.864;12.186;2022-08-19T04:14:50;23.50;99.90
5621;DHT22;2832;50.864;12.186;2022-08-19T04:17:19;23.40;99.90
5621;DHT22;2832;50.864;12.186;2022-08-19T04:19:49;23.40;99.90
5621;DHT22;2832;50.864;12.186;2022-08-19T04:22:18;23.30;99.90
5621;DHT22;2832;50.864;12.186;2022-08-19T04:24:47;23.30;99.90
5621;DHT22;2832;50.864;12.186;2022-08-19T04:27:16;23.30;99.90
5621;DHT22;2832;50.864;12.186;2022-08-19T04:29:44;23.30;99.90
5621;DHT22;2832;50.864;12.186;2022-08-19T04:32:18;23.30;99.90
5621;DHT22;2832;50.864;12.186;2022-08-19T04:34:47;23.30;99.90
5621;DHT22;2832;50.864;12.186;2022-08-19T04:37:16;23.30;99.90
5621;DHT22;2832;50.864;12.186;2022-08-19T04:39:43;23.40;99.90
5621;DHT22;2832;50.864;12.186;2022-08-19T04:42:29;23.30;99.90
5621;DHT22;2832;50.864;12.186;2022-08-19T04:45:09;23.40;99.90
5621;DHT22;2832;50.864;12.186;2022-08-19T04:47:40;23.40;99.90
5621;DHT22;2832;50.864;12.186;2022-08-19T04:50:10;23.30;99.90
5621;DHT22;2832;50.864;12.186;2022-08-19T04:52:40;23.30;99.90
5621;DHT22;2832;50.864;12.186;2022-08-19T04:55:10;23.30;99.90
5621;DHT22;2832;50.864;12.186;2022-08-19T04:57:40;23.30;99.90
5621;DHT22;2832;50.864;12.186;2022-08-19T05:00:10;23.30;99.90
5621;DHT22;2832;50.864;12.186;2022-08-19T05:02:42;23.30;99.90
5621;DHT22;2832;50.864;12.186;2022-08-19T05:05:11;23.30;99.90
5621;DHT22;2832;50.864;12.186;2022-08-19T05:07:45;23.30;99.90
5621;DHT22;2832;50.864;12.186;2022-08-19T05:10:13;23.30;99.90
5621;DHT22;2832;50.864;12.186;2022-08-19T05:12:41;23.20;99.90
5621;DHT22;2832;50.864;12.186;2022-08-19T05:15:10;23.20;99.90
5621;DHT22;2832;50.864;12.186;2022-08-19T05:17:39;23.10;99.90
5621;DHT22;2832;50.864;12.186;2022-08-19T05:21:16;23.00;99.90
5621;DHT22;2832;50.864;12.186;2022-08-19T05:24:00;23.00;99.90
5621;DHT22;2832;50.864;12.186;2022-08-19T05:26:29;22.90;99.90
5621;DHT22;2832;50.864;12.186;2022-08-19T05:28:57;22.90;99.90
5621;DHT22;2832;50.864;12.186;2022-08-19T05:31:25;22.90;99.90
5621;DHT22;2832;50.864;12.186;2022-08-19T05:34:45;22.90;99.90
5621;DHT22;2832;50.864;12.186;2022-08-19T05:37:32;22.80;99.90
5621;DHT22;2832;50.864;12.186;2022-08-19T05:40:04;22.80;99.90
5621;DHT22;2832;50.864;12.186;2022-08-19T05:42:34;22.80;99.90
5621;DHT22;2832;50.864;12.186;2022-08-19T05:45:08;22.80;99.90
5621;DHT22;2832;50.864;12.186;2022-08-19T05:47:52;22.90;99.90
5621;DHT22;2832;50.864;12.186;2022-08-19T05:50:22;22.90;99.90
5621;DHT22;2832;50.864;12.186;2022-08-19T05:52:52;22.90;99.90
5621;DHT22;2832;50.864;12.186;2022-08-19T06:02:28;23.10;99.90
5621;DHT22;2832;50.864;12.186;2022-08-19T06:04:56;23.10;99.90
5621;DHT22;2832;50.864;12.186;2022-08-19T06:07:24;23.10;99.90
5621;DHT22;2832;50.864;12.186;2022-08-19T06:09:53;23.10;99.90
5621;DHT22;2832;50.864;12.186;2022-08-19T06:12:24;23.10;99.90
5621;DHT22;2832;50.864;12.186;2022-08-19T06:14:57;23.10;99.90
5621;DHT22;2832;50.864;12.186;2022-08-19T06:17:28;23.10;99.90
5621;DHT22;2832;50.864;12.186;2022-08-19T06:19:56;23.10;99.90
5621;DHT22;2832;50.864;12.186;2022-08-19T06:22:25;23.20;99.90
5621;DHT22;2832;50.864;12.186;2022-08-19T06:24:54;23.20;99.90
5621;DHT22;2832;50.864;12.186;2022-08-19T06:27:23;23.20;99.90
5621;DHT22;2832;50.864;12.186;2022-08-19T06:29:57;23.20;99.90
5621;DHT22;2832;50.864;12.186;2022-08-19T06:32:27;23.20;99.90
5621;DHT22;2832;50.864;12.186;2022-08-19T06:34:55;23.20;99.90
5621;DHT22;2832;50.864;12.186;2022-08-19T06:37:23;23.20;99.90
5621;DHT22;2832;50.864;12.186;2022-08-19T06:39:51;23.30;99.90
5621;DHT22;2832;50.864;12.186;2022-08-19T06:42:19;23.30;99.90
5621;DHT22;2832;50.864;12.186;2022-08-19T06:44:48;23.20;99.90
5621;DHT22;2832;50.864;12.186;2022-08-19T06:58:04;23.10;99.90
5621;DHT22;2832;50.864;12.186;2022-08-19T07:00:32;23.10;99.90
5621;DHT22;2832;50.864;12.186;2022-08-19T07:03:00;23.10;99.90
5621;DHT22;2832;50.864;12.186;2022-08-19T07:05:29;23.10;99.90
5621;DHT22;2832;50.864;12.186;2022-08-19T07:08:02;23.10;99.90
5621;DHT22;2832;50.864;12.186;2022-08-19T07:10:32;23.10;99.90
5621;DHT22;2832;50.864;12.186;2022-08-19T07:13:03;23.20;99.90
5621;DHT22;2832;50.864;12.186;2022-08-19T07:15:33;23.10;99.90
5621;DHT22;2832;50.864;12.186;2022-08-19T07:18:01;23.10;99.90
5621;DHT22;2832;50.864;12.186;2022-08-19T07:20:30;23.00;99.90
5621;DHT22;2832;50.864;12.186;2022-08-19T07:22:59;23.00;99.90
5621;DHT22;2832;50.864;12.186;2022-08-19T07:25:27;23.00;99.90
5621;DHT22;2832;50.864;12.186;2022-08-19T07:27:57;23.00;99.90
5621;DHT22;2832;50.864;12.186;2022-08-19T07:37:16;23.00;99.90
5621;DHT22;2832;50.864;12.186;2022-08-19T07:43:16;22.90;99.90
5621;DHT22;2832;50.864;12.186;2022-08-19T07:45:47;22.90;99.90
5621;DHT22;2832;50.864;12.186;2022-08-19T07:48:15;22.80;99.90
5621;DHT22;2832;50.864;12.186;2022-08-19T07:50:44;22.80;99.90
5621;DHT22;2832;50.864;12.186;2022-08-19T07:57:03;22.80;99.90
5621;DHT22;2832;50.864;12.186;2022-08-19T07:59:54;22.80;99.90
5621;DHT22;2832;50.864;12.186;2022-08-19T08:02:49;22.80;99.90
5621;DHT22;2832;50.864;12.186;2022-08-19T08:05:17;22.80;99.90
5621;DHT22;2832;50.864;12.186;2022-08-19T08:08:08;22.80;99.90
5621;DHT22;2832;50.864;12.186;2022-08-19T08:11:36;22.80;99.90
5621;DHT22;2832;50.864;12.186;2022-08-19T08:17:23;22.80;99.90
5621;DHT22;2832;50.864;12.186;2022-08-19T08:20:07;22.90;99.90
5621;DHT22;2832;50.864;12.186;2022-08-19T08:22:51;22.90;99.90
5621;DHT22;2832;50.864;12.186;2022-08-19T08:28:38;23.00;99.90
5621;DHT22;2832;50.864;12.186;2022-08-19T08:29:06;23.00;99.90
5621;DHT22;2832;50.864;12.186;2022-08-19T08:35:14;23.00;99.90
5621;DHT22;2832;50.864;12.186;2022-08-19T08:37:43;23.00;99.90
5621;DHT22;2832;50.864;12.186;2022-08-19T08:40:18;23.00;99.90
5621;DHT22;2832;50.864;12.186;2022-08-19T08:42:50;23.00;99.90
5621;DHT22;2832;50.864;12.186;2022-08-19T08:45:27;23.00;99.90
5621;DHT22;2832;50.864;12.186;2022-08-19T08:48:00;23.00;99.90
5621;DHT22;2832;50.864;12.186;2022-08-19T08:54:05;23.00;99.90
5621;DHT22;2832;50.864;12.186;2022-08-19T08:56:34;23.00;99.90
5621;DHT22;2832;50.864;12.186;2022-08-19T08:59:05;23.00;99.90
5621;DHT22;2832;50.864;12.186;2022-08-19T09:01:36;23.00;99.90
5621;DHT22;2832;50.864;12.186;2022-08-19T09:04:05;23.00;99.90
5621;DHT22;2832;50.864;12.186;2022-08-19T09:06:40;23.00;99.90
5621;DHT22;2832;50.864;12.186;2022-08-19T09:09:16;23.00;99.90
5621;DHT22;2832;50.864;12.186;2022-08-19T09:11:55;23.00;99.90
5621;DHT22;2832;50.864;12.186;2022-08-19T09:14:36;23.00;99.90
5621;DHT22;2832;50.864;12.186;2022-08-19T09:17:07;23.00;99.90
5621;DHT22;2832;50.864;12.186;2022-08-19T09:19:52;23.00;99.90
5621;DHT22;2832;50.864;12.186;2022-08-19T09:22:34;23.00;99.90
5621;DHT22;2832;50.864;12.186;2022-08-19T09:28:20;22.80;99.90
5621;DHT22;2832;50.864;12.186;2022-08-19T09:30:57;22.80;99.90
5621;DHT22;2832;50.864;12.186;2022-08-19T09:33:48;22.70;99.90
5621;DHT22;2832;50.864;12.186;2022-08-19T09:36:20;22.60;99.90
5621;DHT22;2832;50.864;12.186;2022-08-19T09:38:51;22.50;99.90
5621;DHT22;2832;50.864;12.186;2022-08-19T09:41:21;22.50;99.90
5621;DHT22;2832;50.864;12.186;2022-08-19T09:44:05;22.40;99.90
5621;DHT22;2832;50.864;12.186;2022-08-19T09:46:45;22.30;99.90
5621;DHT22;2832;50.864;12.186;2022-08-19T09:49:15;22.30;99.90
5621;DHT22;2832;50.864;12.186;2022-08-19T09:51:52;22.30;99.90
5621;DHT22;2832;50.864;12.186;2022-08-19T09:54:23;22.30;99.90
5621;DHT22;2832;50.864;12.186;2022-08-19T09:56:53;22.40;99.90
5621;DHT22;2832;50.864;12.186;2022-08-19T09:59:24;22.40;99.90
5621;DHT22;2832;50.864;12.186;2022-08-19T10:01:57;22.30;99.90
5621;DHT22;2832;50.864;12.186;2022-08-19T10:04:30;22.30;99.90
5621;DHT22;2832;50.864;12.186;2022-08-19T10:07:12;22.30;99.90
5621;DHT22;2832;50.864;12.186;2022-08-19T10:09:40;22.50;99.90
5621;DHT22;2832;50.864;12.186;2022-08-19T10:12:08;22.50;99.90
5621;DHT22;2832;50.864;12.186;2022-08-19T10:14:43;22.50;99.90
5621;DHT22;2832;50.864;12.186;2022-08-19T10:17:12;22.50;99.90
5621;DHT22;2832;50.864;12.186;2022-08-19T10:19:40;22.50;99.90
5621;DHT22;2832;50.864;12.186;2022-08-19T10:22:09;22.40;99.90
5621;DHT22;2832;50.864;12.186;2022-08-19T10:24:43;22.30;99.90
5621;DHT22;2832;50.864;12.186;2022-08-19T10:27:12;22.30;99.90
5621;DHT22;2832;50.864;12.186;2022-08-19T10:29:47;22.30;99.90
5621;DHT22;2832;50.864;12.186;2022-08-19T10:32:16;22.30;99.90
5621;DHT22;2832;50.864;12.186;2022-08-19T10:34:44;22.30;99.90
5621;DHT22;2832;50.864;12.186;2022-08-19T10:37:13;22.30;99.90
5621;DHT22;2832;50.864;12.186;2022-08-19T10:39:46;22.30;99.90
5621;DHT22;2832;50.864;12.186;2022-08-19T10:42:15;22.20;99.90
5621;DHT22;2832;50.864;12.186;2022-08-19T10:44:50;22.20;99.90
5621;DHT22;2832;50.864;12.186;2022-08-19T10:47:39;22.30;99.90
5621;DHT22;2832;50.864;12.186;2022-08-19T10:50:20;22.30;99.90
5621;DHT22;2832;50.864;12.186;2022-08-19T10:53:23;22.40;99.90
5621;DHT22;2832;50.864;12.186;2022-08-19T10:56:02;22.50;99.90
5621;DHT22;2832;50.864;12.186;2022-08-19T10:58:50;22.50;99.90
5621;DHT22;2832;50.864;12.186;2022-08-19T11:01:20;22.50;99.90
5621;DHT22;2832;50.864;12.186;2022-08-19T11:03:48;22.50;99.90
5621;DHT22;2832;50.864;12.186;2022-08-19T11:06:18;22.40;99.90
5621;DHT22;2832;50.864;12.186;2022-08-19T11:08:57;22.30;99.90
5621;DHT22;2832;50.864;12.186;2022-08-19T11:11:27;22.30;99.90
5621;DHT22;2832;50.864;12.186;2022-08-19T11:14:02;22.20;99.90
5621;DHT22;2832;50.864;12.186;2022-08-19T11:16:40;22.20;99.90
5621;DHT22;2832;50.864;12.186;2022-08-19T11:19:10;22.20;99.90
5621;DHT22;2832;50.864;12.186;2022-08-19T11:21:41;22.20;99.90
5621;DHT22;2832;50.864;12.186;2022-08-19T11:24:13;22.10;99.90
5621;DHT22;2832;50.864;12.186;2022-08-19T11:26:53;22.00;99.90
5621;DHT22;2832;50.864;12.186;2022-08-19T11:29:33;21.90;99.90
5621;DHT22;2832;50.864;12.186;2022-08-19T11:32:23;21.80;99.90
5621;DHT22;2832;50.864;12.186;2022-08-19T11:34:52;21.70;99.90
5621;DHT22;2832;50.864;12.186;2022-08-19T11:37:26;21.70;99.90
5621;DHT22;2832;50.864;12.186;2022-08-19T11:39:55;21.70;99.90
5621;DHT22;2832;50.864;12.186;2022-08-19T11:42:24;21.70;99.90
5621;DHT22;2832;50.864;12.186;2022-08-19T11:45:10;21.80;99.90
5621;DHT22;2832;50.864;12.186;2022-08-19T11:47:41;21.80;99.90
5621;DHT22;2832;50.864;12.186;2022-08-19T11:50:10;21.90;99.90
5621;DHT22;2832;50.864;12.186;2022-08-19T11:52:39;22.00;99.90
5621;DHT22;2832;50.864;12.186;2022-08-19T11:55:08;22.10;99.90
5621;DHT22;2832;50.864;12.186;2022-08-19T11:57:37;22.20;99.90
5621;DHT22;2832;50.864;12.186;2022-08-19T12:00:08;22.20;99.90
5621;DHT22;2832;50.864;12.186;2022-08-19T12:02:41;22.20;99.90
5621;DHT22;2832;50.864;12.186;2022-08-19T12:05:10;22.30;99.90
5621;DHT22;2832;50.864;12.186;2022-08-19T12:07:39;22.30;99.90
5621;DHT22;2832;50.864;12.186;2022-08-19T12:10:10;22.30;99.90
5621;DHT22;2832;50.864;12.186;2022-08-19T12:12:45;22.30;99.90
5621;DHT22;2832;50.864;12.186;2022-08-19T12:15:15;22.30;99.90
5621;DHT22;2832;50.864;12.186;2022-08-19T12:17:47;22.30;99.90
5621;DHT22;2832;50.864;12.186;2022-08-19T12:20:19;22.40;99.90
5621;DHT22;2832;50.864;12.186;2022-08-19T12:22:50;22.40;99.90
5621;DHT22;2832;50.864;12.186;2022-08-19T12:25:22;22.50;99.90
5621;DHT22;2832;50.864;12.186;2022-08-19T12:27:58;22.40;99.90
5621;DHT22;2832;50.864;12.186;2022-08-19T12:30:27;22.40;99.90
5621;DHT22;2832;50.864;12.186;2022-08-19T12:32:56;22.40;99.90
5621;DHT22;2832;50.864;12.186;2022-08-19T12:35:27;22.30;99.90
5621;DHT22;2832;50.864;12.186;2022-08-19T12:37:56;22.30;99.90
5621;DHT22;2832;50.864;12.186;2022-08-19T12:40:37;22.30;99.90
5621;DHT22;2832;50.864;12.186;2022-08-19T12:43:12;22.30;99.90
5621;DHT22;2832;50.864;12.186;2022-08-19T12:45:42;22.30;99.90
5621;DHT22;2832;50.864;12.186;2022-08-19T12:48:13;22.30;99.90
5621;DHT22;2832;50.864;12.186;2022-08-19T12:50:42;22.30;99.90
5621;DHT22;2832;50.864;12.186;2022-08-19T12:53:11;22.30;99.90
5621;DHT22;2832;50.864;12.186;2022-08-19T12:55:40;22.30;99.90
5621;DHT22;2832;50.864;12.186;2022-08-19T12:58:11;22.30;99.90
5621;DHT22;2832;50.864;12.186;2022-08-19T13:00:48;22.40;99.90
5621;DHT22;2832;50.864;12.186;2022-08-19T13:03:17;22.50;99.90
5621;DHT22;2832;50.864;12.186;2022-08-19T13:05:46;22.50;99.90
5621;DHT22;2832;50.864;12.186;2022-08-19T13:08:17;22.60;99.90
5621;DHT22;2832;50.864;12.186;2022-08-19T13:10:47;22.60;99.90
5621;DHT22;2832;50.864;12.186;2022-08-19T13:13:16;22.60;99.90
5621;DHT22;2832;50.864;12.186;2022-08-19T13:15:45;22.70;99.90
5621;DHT22;2832;50.864;12.186;2022-08-19T13:18:14;22.80;99.90
5621;DHT22;2832;50.864;12.186;2022-08-19T13:20:44;22.80;99.90
5621;DHT22;2832;50.864;12.186;2022-08-19T13:23:15;22.80;99.90
5621;DHT22;2832;50.864;12.186;2022-08-19T13:25:56;22.80;99.90
5621;DHT22;2832;50.864;12.186;2022-08-19T13:28:26;22.80;99.90
5621;DHT22;2832;50.864;12.186;2022-08-19T13:31:21;22.80;99.90
5621;DHT22;2832;50.864;12.186;2022-08-19T13:34:06;22.80;99.90
5621;DHT22;2832;50.864;12.186;2022-08-19T13:39:50;22.80;99.90
5621;DHT22;2832;50.864;12.186;2022-08-19T13:42:23;22.80;99.90
5621;DHT22;2832;50.864;12.186;2022-08-19T13:45:04;22.80;99.90
5621;DHT22;2832;50.864;12.186;2022-08-19T13:50:27;22.80;99.90
5621;DHT22;2832;50.864;12.186;2022-08-19T13:52:58;22.70;99.90
5621;DHT22;2832;50.864;12.186;2022-08-19T13:55:27;22.70;99.90
5621;DHT22;2832;50.864;12.186;2022-08-19T13:57:57;22.60;99.90
5621;DHT22;2832;50.864;12.186;2022-08-19T14:00:30;22.60;99.90
5621;DHT22;2832;50.864;12.186;2022-08-19T14:03:03;22.60;99.90
5621;DHT22;2832;50.864;12.186;2022-08-19T14:05:32;22.60;99.90
5621;DHT22;2832;50.864;12.186;2022-08-19T14:08:00;22.70;99.90
5621;DHT22;2832;50.864;12.186;2022-08-19T14:13:21;22.80;99.90
5621;DHT22;2832;50.864;12.186;2022-08-19T14:15:53;22.90;99.90
5621;DHT22;2832;50.864;12.186;2022-08-19T14:18:24;22.80;99.90
5621;DHT22;2832;50.864;12.186;2022-08-19T14:20:52;22.70;99.90
5621;DHT22;2832;50.864;12.186;2022-08-19T14:23:26;22.80;99.90
5621;DHT22;2832;50.864;12.186;2022-08-19T14:26:12;22.80;99.90
5621;DHT22;2832;50.864;12.186;2022-08-19T14:28:45;22.80;99.90
5621;DHT22;2832;50.864;12.186;2022-08-19T14:31:18;22.80;99.90
5621;DHT22;2832;50.864;12.186;2022-08-19T14:33:51;22.80;99.90
5621;DHT22;2832;50.864;12.186;2022-08-19T14:36:22;22.90;99.90
5621;DHT22;2832;50.864;12.186;2022-08-19T14:42:15;22.90;99.90
5621;DHT22;2832;50.864;12.186;2022-08-19T14:44:47;22.80;99.90
5621;DHT22;2832;50.864;12.186;2022-08-19T14:47:15;22.80;99.90
5621;DHT22;2832;50.864;12.186;2022-08-19T14:49:45;22.90;99.90
5621;DHT22;2832;50.864;12.186;2022-08-19T14:52:18;22.90;99.90
5621;DHT22;2832;50.864;12.186;2022-08-19T14:54:46;22.90;99.90
5621;DHT22;2832;50.864;12.186;2022-08-19T14:57:19;22.90;99.90
5621;DHT22;2832;50.864;12.186;2022-08-19T14:59:48;22.90;99.90
5621;DHT22;2832;50.864;12.186;2022-08-19T15:02:17;22.90;99.90
5621;DHT22;2832;50.864;12.186;2022-08-19T15:04:46;23.00;99.90
5621;DHT22;2832;50.864;12.186;2022-08-19T15:07:18;22.90;99.90
5621;DHT22;2832;50.864;12.186;2022-08-19T15:09:49;22.90;99.90
5621;DHT22;2832;50.864;12.186;2022-08-19T15:12:20;22.90;99.90
5621;DHT22;2832;50.864;12.186;2022-08-19T15:14:58;22.80;99.90
5621;DHT22;2832;50.864;12.186;2022-08-19T15:17:33;22.70;99.90
5621;DHT22;2832;50.864;12.186;2022-08-19T15:20:10;22.60;99.90
5621;DHT22;2832;50.864;12.186;2022-08-19T15:22:40;22.60;99.90
5621;DHT22;2832;50.864;12.186;2022-08-19T15:25:26;22.50;99.90
5621;DHT22;2832;50.864;12.186;2022-08-19T15:31:06;22.60;99.90
5621;DHT22;2832;50.864;12.186;2022-08-19T15:33:39;22.60;99.90
5621;DHT22;2832;50.864;12.186;2022-08-19T15:36:27;22.60;99.90
5621;DHT22;2832;50.864;12.186;2022-08-19T15:39:04;22.60;99.90
5621;DHT22;2832;50.864;12.186;2022-08-19T15:41:35;22.60;99.90
5621;DHT22;2832;50.864;12.186;2022-08-19T15:44:06;22.60;99.90
5621;DHT22;2832;50.864;12.186;2022-08-19T15:46:40;22.60;99.90
5621;DHT22;2832;50.864;12.186;2022-08-19T15:49:10;22.60;99.90
5621;DHT22;2832;50.864;12.186;2022-08-19T15:51:39;22.60;99.90
5621;DHT22;2832;50.864;12.186;2022-08-19T15:54:10;22.60;99.90
5621;DHT22;2832;50.864;12.186;2022-08-19T15:56:42;22.50;99.90
5621;DHT22;2832;50.864;12.186;2022-08-19T15:59:28;22.50;99.90
5621;DHT22;2832;50.864;12.186;2022-08-19T16:02:18;22.50;99.90
5621;DHT22;2832;50.864;12.186;2022-08-19T16:05:07;22.60;99.90
5621;DHT22;2832;50.864;12.186;2022-08-19T16:07:53;22.60;99.90
5621;DHT22;2832;50.864;12.186;2022-08-19T16:10:22;22.60;99.90
5621;DHT22;2832;50.864;12.186;2022-08-19T16:12:51;22.60;99.90
5621;DHT22;2832;50.864;12.186;2022-08-19T16:15:19;22.50;99.90
5621;DHT22;2832;50.864;12.186;2022-08-19T16:17:50;22.50;99.90
5621;DHT22;2832;50.864;12.186;2022-08-19T16:20:20;22.50;99.90
5621;DHT22;2832;50.864;12.186;2022-08-19T16:22:48;22.50;99.90
5621;DHT22;2832;50.864;12.186;2022-08-19T16:25:17;22.50;99.90
5621;DHT22;2832;50.864;12.186;2022-08-19T16:27:47;22.60;99.90
5621;DHT22;2832;50.864;12.186;2022-08-19T16:30:17;22.60;99.90
5621;DHT22;2832;50.864;12.186;2022-08-19T16:32:45;22.60;99.90
5621;DHT22;2832;50.864;12.186;2022-08-19T16:35:15;22.60;99.90
5621;DHT22;2832;50.864;12.186;2022-08-19T16:37:43;22.70;99.90
5621;DHT22;2832;50.864;12.186;2022-08-19T16:40:22;22.80;99.90
5621;DHT22;2832;50.864;12.186;2022-08-19T16:42:50;22.70;99.90
5621;DHT22;2832;50.864;12.186;2022-08-19T16:45:19;22.60;99.90
5621;DHT22;2832;50.864;12.186;2022-08-19T16:47:47;22.70;99.90
5621;DHT22;2832;50.864;12.186;2022-08-19T16:50:18;22.70;99.90
5621;DHT22;2832;50.864;12.186;2022-08-19T16:52:47;22.70;99.90
5621;DHT22;2832;50.864;12.186;2022-08-19T16:55:16;22.70;99.90
5621;DHT22;2832;50.864;12.186;2022-08-19T16:58:02;22.80;99.90
5621;DHT22;2832;50.864;12.186;2022-08-19T17:01:13;22.80;99.90
5621;DHT22;2832;50.864;12.186;2022-08-19T17:03:58;22.80;99.90
5621;DHT22;2832;50.864;12.186;2022-08-19T17:06:34;22.80;99.90
5621;DHT22;2832;50.864;12.186;2022-08-19T17:09:13;22.80;99.90
5621;DHT22;2832;50.864;12.186;2022-08-19T17:11:55;22.80;99.90
5621;DHT22;2832;50.864;12.186;2022-08-19T17:14:24;22.80;99.90
5621;DHT22;2832;50.864;12.186;2022-08-19T17:17:19;22.80;99.90
5621;DHT22;2832;50.864;12.186;2022-08-19T17:19:52;22.80;99.90
5621;DHT22;2832;50.864;12.186;2022-08-19T17:22:23;22.80;99.90
5621;DHT22;2832;50.864;12.186;2022-08-19T17:25:02;22.80;99.90
5621;DHT22;2832;50.864;12.186;2022-08-19T17:27:54;22.80;99.90
5621;DHT22;2832;50.864;12.186;2022-08-19T17:30:47;22.70;99.90